Flight Track Log - Related Links

Times and Time Zones

All times are in EDT time to prevent confusion due to time zone crossing. See the FLG3735 flight status page for this flight to view local times or setup timezone preferences in your user account.

Time Position Orientation Groundspeed Altitude Reporting Facility
EDT Latitude Longitude Course Direction KTS MPH feet Rate Location/Type
Sat 11:22:06 AM 33.6500 -84.4000 90° East 148 170 2,000  Level Atlanta TRACON
Sat 11:23:00 AM 33.6500 -84.3500 90° East 188 216 3,500 1,842 Climbing Atlanta TRACON
Sat 11:24:00 AM 33.6667 -84.2667 76° East 261 300 5,500 2,250 Climbing Atlanta TRACON
Sat 11:25:00 AM 33.7167 -84.2167 40° Northeast 296 341 8,000 1,688 Climbing Atlanta TRACON
Sat 11:26:40 AM 33.8525 -84.2239 357° North 328 377 10,000 975 Climbing Atlanta Center
Sat 11:27:40 AM 33.9506 -84.2367 354° North 352 405 10,600 1,300 Climbing Atlanta Center
Sat 11:28:40 AM 34.0528 -84.2494 354° North 364 419 12,600 2,000 Climbing Atlanta Center
Sat 11:29:40 AM 34.1531 -84.2647 353° North 369 425 14,600 1,900 Climbing Atlanta Center
Sat 11:30:40 AM 34.2575 -84.2775 354° North 369 425 16,400 1,750 Climbing Atlanta Center
Sat 11:31:40 AM 34.3617 -84.2653 North 364 419 18,100 1,550 Climbing Atlanta Center
Sat 11:32:40 AM 34.4703 -84.2378 12° North 364 419 19,500 1,250 Climbing Atlanta Center
Sat 11:33:40 AM 34.5767 -84.2153 10° North 376 433 20,600 1,050 Climbing Atlanta Center
Sat 11:34:40 AM 34.6811 -84.1903 11° North 376 433 21,600 900 Climbing Atlanta Center
Sat 11:35:40 AM 34.7939 -84.1653 10° North 383 441 22,400 900 Climbing Atlanta Center
Sat 11:36:40 AM 34.9108 -84.1375 11° North 405 466 23,400 1,000 Climbing Atlanta Center
Sat 11:37:40 AM 35.0278 -84.1097 11° North 418 481 24,400 800 Climbing Atlanta Center
Sat 11:38:40 AM 35.1467 -84.0794 12° North 429 494 25,000 750 Climbing Atlanta Center
Sat 11:39:40 AM 35.2717 -84.0514 10° North 435 501 25,900 800 Climbing Atlanta Center
Sat 11:40:40 AM 35.3950 -84.0208 11° North 440 506 26,600 750 Climbing Atlanta Center
Sat 11:41:40 AM 35.5075 -83.9928 11° North 456 525 27,400 650 Climbing Atlanta Center
Sat 11:42:40 AM 35.6347 -83.9622 11° North 461 531 27,900 400 Climbing Atlanta Center
Sat 11:43:40 AM 35.7619 -83.9314 11° North 466 536 28,200 400 Climbing Atlanta Center
Sat 11:44:40 AM 35.8892 -83.8953 13° North 466 536 28,700 492 Climbing Atlanta Center
Sat 11:46:55 AM 36.1644 -83.7292 26° Northeast 492 566 29,800 487 Climbing Indianapolis Center
Sat 11:47:57 AM 36.2586 -83.6072 46° Northeast 498 573 30,300 537 Climbing Indianapolis Center
Sat 11:48:58 AM 36.3508 -83.4719 50° Northeast 490 564 30,900 344 Climbing Indianapolis Center
Sat 11:49:59 AM 36.4550 -83.3214 49° Northeast 493 567 31,000 49 Climbing Indianapolis Center
Sat 11:51:01 AM 36.5472 -83.1872 49° Northeast 508 585 31,000  Level Indianapolis Center
Sat 11:52:02 AM 36.6381 -83.0528 50° Northeast 507 583 31,000  Level Indianapolis Center
Sat 11:53:04 AM 36.7281 -82.9186 50° Northeast 510 587 31,000  Level Indianapolis Center
Sat 11:54:05 AM 36.8161 -82.7836 51° Northeast 514 592 31,000  Level Indianapolis Center
Sat 11:55:06 AM 36.9081 -82.6494 49° Northeast 516 594 31,000  Level Indianapolis Center
Sat 11:56:08 AM 37.0144 -82.4906 50° Northeast 518 596 31,000  Level Indianapolis Center
Sat 11:57:09 AM 37.1058 -82.3558 50° Northeast 512 589 31,000  Level Indianapolis Center
Sat 11:58:12 AM 37.1972 -82.2186 50° Northeast 513 590 31,000  Level Indianapolis Center
Sat 11:59:12 AM 37.2889 -82.0792 50° Northeast 515 593 31,000 -248 Level Indianapolis Center
Sat 12:00:13 PM 37.3811 -81.9419 50° Northeast 513 590 30,500 -976 Descending Indianapolis Center
Sat 12:01:15 PM 37.4689 -81.8053 51° Northeast 505 581 29,000 -732 Descending Indianapolis Center
Sat 12:02:16 PM 37.5553 -81.6731 50° Northeast 493 567 29,000  Level Indianapolis Center
Sat 12:03:17 PM 37.6422 -81.5369 51° Northeast 497 572 29,000  Level Indianapolis Center
Sat 12:04:18 PM 37.7308 -81.4000 51° Northeast 501 577 29,000  Level Indianapolis Center
Sat 12:05:20 PM 37.8322 -81.2414 51° Northeast 498 573 29,000  Level Indianapolis Center
Sat 12:06:21 PM 37.9203 -81.1044 51° Northeast 501 577 29,000  Level Indianapolis Center
Sat 12:07:22 PM 38.0053 -80.9683 52° Northeast 498 573 29,000  Level Indianapolis Center
Sat 12:08:23 PM 38.0928 -80.8314 51° Northeast 500 575 29,000  Level Indianapolis Center
Sat 12:09:25 PM 38.1786 -80.6933 52° Northeast 499 574 29,000  Level Indianapolis Center
Sat 12:10:26 PM 38.2656 -80.5553 51° Northeast 501 577 29,000  Level Indianapolis Center
Sat 12:11:27 PM 38.3572 -80.4089 51° Northeast 497 572 29,000  Level Indianapolis Center
Sat 12:12:29 PM 38.4417 -80.2736 51° Northeast 498 573 29,000  Level Indianapolis Center
Sat 12:13:30 PM 38.5256 -80.1367 52° Northeast 501 577 29,000  Level Indianapolis Center
Sat 12:14:32 PM 38.6256 -79.9744 52° Northeast 500 575 29,000  Level Indianapolis Center
Sat 12:15:32 PM 38.7108 -79.8356 52° Northeast 499 574 29,000  Level Indianapolis Center
Sat 12:16:34 PM 38.7925 -79.7025 52° Northeast 495 570 29,000  Level Indianapolis Center
Sat 12:17:35 PM 38.8761 -79.5642 52° Northeast 501 577 29,000  Level Indianapolis Center
Sat 12:18:36 PM 38.9764 -79.3992 52° Northeast 502 578 29,000  Level Indianapolis Center
Sat 12:19:48 PM 39.0725 -79.2519 50° Northeast 498 573 29,000  Level Washington Center
Sat 12:20:48 PM 39.1539 -79.1089 54° Northeast 498 573 29,000 -541 Level Washington Center
Sat 12:21:50 PM 39.2372 -78.9681 53° Northeast 498 573 27,900 -1,967 Descending Washington Center
Sat 12:22:50 PM 39.3161 -78.8269 54° Northeast 492 566 25,000 -2,850 Descending Washington Center
Sat 12:23:50 PM 39.3883 -78.6878 56° Northeast 481 554 22,200 -2,847 Descending Washington Center
Sat 12:24:48 PM 39.4650 -78.5431 56° Northeast 462 532 19,400 -2,593 Descending Washington Center
Sat 12:25:48 PM 39.5347 -78.4169 54° Northeast 438 504 17,100 -2,182 Descending Washington Center
Sat 12:26:49 PM 39.5981 -78.2956 56° Northeast 421 484 15,000 -1,050 Descending Washington Center
Sat 12:27:48 PM 39.6631 -78.1739 55° Northeast 408 470 15,000  Level Washington Center
Sat 12:29:35 PM 39.6950 -77.9133 81° East 400 460 15,000  Level New York Center
Sat 12:30:35 PM 39.7528 -77.7842 60° Northeast 405 466 15,000  Level New York Center
Sat 12:31:35 PM 39.8383 -77.6764 44° Northeast 399 459 15,000  Level New York Center
Sat 12:32:35 PM 39.9197 -77.5678 46° Northeast 416 479 15,000 -100 Level New York Center
Sat 12:33:35 PM 40.0031 -77.4594 45° Northeast 423 487 14,800 -900 Descending New York Center
Sat 12:34:35 PM 40.0839 -77.3558 44° Northeast 411 473 13,200 -1,500 Descending New York Center
Sat 12:35:35 PM 40.1581 -77.2597 45° Northeast 400 460 11,800 -2,000 Descending New York Center
Sat 12:36:35 PM 40.2164 -77.1836 45° Northeast 324 373 9,200 -2,450 Descending New York Center
Sat 12:37:35 PM 40.2133 -77.0853 92° East 240 276 6,900 -2,100 Descending New York Center
Sat 12:38:35 PM 40.1783 -77.0006 118° Southeast 252 290 5,000 -950 Descending New York Center
Sat 12:39:35 PM 40.1450 -76.9189 118° Southeast 263 303 5,000 -150 Level New York Center
Sat 12:40:35 PM 40.1117 -76.8400 119° Southeast 258 297 4,700 -1,000 Descending New York Center
Sat 12:41:35 PM 40.1011 -76.7631 100° East 239 275 3,000 -1,400 Descending New York Center
Sat 12:42:35 PM 40.1231 -76.6997 66° East 184 212 1,900 -700 Descending New York Center
Sat 12:43:35 PM 40.1539 -76.6644 41° Northeast 162 186 1,600 -300 Descending New York Center
Sat 12:50:00 PM 40.1932 -76.7626 45° Northeast  Level Estimated
Sat 12:57:00 PM 40.1932 -76.7626 246° West  Level Estimated
Sat 12:58:00 PM 40.1932 -76.7626 246° West  Level Estimated
Sat 12:59:00 PM 40.1932 -76.7626 246° West  Level Estimated
Sat 01:00:00 PM 40.1932 -76.7626 246° West  Level Estimated
Sat 01:01:00 PM 40.1932 -76.7626 246° West  Level Estimated
Sat 01:02:00 PM 40.1932 -76.7626 246° West  Level Estimated
Sat 01:03:00 PM 40.1932 -76.7626 246° West  Level Estimated

Login

Don't have an account? Register now (free) for customized features, flight alerts, and more!